sensor_id;sensor_type;location;lat;lon;timestamp;temperature;humidity
7562;DHT22;3822;48.784;9.174;2023-06-26T00:02:08;27.20;42.80
7562;DHT22;3822;48.784;9.174;2023-06-26T00:04:34;27.10;42.90
7562;DHT22;3822;48.784;9.174;2023-06-26T00:07:01;27.10;43.00
7562;DHT22;3822;48.784;9.174;2023-06-26T00:09:30;27.10;43.00
7562;DHT22;3822;48.784;9.174;2023-06-26T00:11:56;27.00;43.00
7562;DHT22;3822;48.784;9.174;2023-06-26T00:14:23;27.00;43.10
7562;DHT22;3822;48.784;9.174;2023-06-26T00:16:49;27.00;43.30
7562;DHT22;3822;48.784;9.174;2023-06-26T00:19:15;26.90;43.30
7562;DHT22;3822;48.784;9.174;2023-06-26T00:21:41;26.90;43.30
7562;DHT22;3822;48.784;9.174;2023-06-26T00:24:13;26.90;43.40
7562;DHT22;3822;48.784;9.174;2023-06-26T00:26:39;26.80;43.60
7562;DHT22;3822;48.784;9.174;2023-06-26T00:29:08;26.80;43.80
7562;DHT22;3822;48.784;9.174;2023-06-26T00:31:36;26.70;43.80
7562;DHT22;3822;48.784;9.174;2023-06-26T00:34:03;26.70;43.90
7562;DHT22;3822;48.784;9.174;2023-06-26T00:36:30;26.60;44.00
7562;DHT22;3822;48.784;9.174;2023-06-26T00:38:56;26.60;44.10
7562;DHT22;3822;48.784;9.174;2023-06-26T00:41:22;26.60;44.20
7562;DHT22;3822;48.784;9.174;2023-06-26T00:43:49;26.60;44.90
7562;DHT22;3822;48.784;9.174;2023-06-26T00:46:15;26.60;44.30
7562;DHT22;3822;48.784;9.174;2023-06-26T00:48:42;26.50;44.30
7562;DHT22;3822;48.784;9.174;2023-06-26T00:51:09;26.50;44.40
7562;DHT22;3822;48.784;9.174;2023-06-26T00:53:36;26.50;44.50
7562;DHT22;3822;48.784;9.174;2023-06-26T00:56:02;26.50;44.50
7562;DHT22;3822;48.784;9.174;2023-06-26T00:58:29;26.50;44.60
7562;DHT22;3822;48.784;9.174;2023-06-26T01:00:55;26.50;44.70
7562;DHT22;3822;48.784;9.174;2023-06-26T01:03:22;26.50;44.80
7562;DHT22;3822;48.784;9.174;2023-06-26T01:05:52;26.40;44.80
7562;DHT22;3822;48.784;9.174;2023-06-26T01:08:18;26.40;44.90
7562;DHT22;3822;48.784;9.174;2023-06-26T01:10:45;26.40;44.90
7562;DHT22;3822;48.784;9.174;2023-06-26T01:13:14;26.30;44.90
7562;DHT22;3822;48.784;9.174;2023-06-26T01:15:41;26.30;44.90
7562;DHT22;3822;48.784;9.174;2023-06-26T01:18:07;26.30;45.10
7562;DHT22;3822;48.784;9.174;2023-06-26T01:20:37;26.30;45.10
7562;DHT22;3822;48.784;9.174;2023-06-26T01:28:31;26.30;45.40
7562;DHT22;3822;48.784;9.174;2023-06-26T01:30:58;26.20;45.70
7562;DHT22;3822;48.784;9.174;2023-06-26T01:33:25;26.20;45.80
7562;DHT22;3822;48.784;9.174;2023-06-26T01:35:52;26.20;45.70
7562;DHT22;3822;48.784;9.174;2023-06-26T01:38:19;26.20;45.70
7562;DHT22;3822;48.784;9.174;2023-06-26T01:40:46;26.10;45.60
7562;DHT22;3822;48.784;9.174;2023-06-26T01:45:54;26.10;45.70
7562;DHT22;3822;48.784;9.174;2023-06-26T01:48:28;26.10;45.90
7562;DHT22;3822;48.784;9.174;2023-06-26T01:50:57;26.00;45.90
7562;DHT22;3822;48.784;9.174;2023-06-26T01:53:24;26.00;46.00
7562;DHT22;3822;48.784;9.174;2023-06-26T01:56:05;26.00;46.10
7562;DHT22;3822;48.784;9.174;2023-06-26T01:58:36;26.00;46.20
7562;DHT22;3822;48.784;9.174;2023-06-26T02:01:06;26.00;46.50
7562;DHT22;3822;48.784;9.174;2023-06-26T02:03:33;26.00;46.70
7562;DHT22;3822;48.784;9.174;2023-06-26T02:06:01;25.90;46.90
7562;DHT22;3822;48.784;9.174;2023-06-26T02:08:28;25.90;47.20
7562;DHT22;3822;48.784;9.174;2023-06-26T02:10:56;25.90;47.40
7562;DHT22;3822;48.784;9.174;2023-06-26T02:13:22;25.90;47.60
7562;DHT22;3822;48.784;9.174;2023-06-26T02:15:49;25.80;47.70
7562;DHT22;3822;48.784;9.174;2023-06-26T02:18:17;25.80;47.80
7562;DHT22;3822;48.784;9.174;2023-06-26T02:20:44;25.80;48.10
7562;DHT22;3822;48.784;9.174;2023-06-26T02:23:10;25.70;48.10
7562;DHT22;3822;48.784;9.174;2023-06-26T02:25:36;25.70;48.00
7562;DHT22;3822;48.784;9.174;2023-06-26T02:28:02;25.70;48.10
7562;DHT22;3822;48.784;9.174;2023-06-26T02:30:29;25.70;48.20
7562;DHT22;3822;48.784;9.174;2023-06-26T02:32:57;25.60;48.20
7562;DHT22;3822;48.784;9.174;2023-06-26T02:35:24;25.60;48.30
7562;DHT22;3822;48.784;9.174;2023-06-26T02:37:50;25.50;48.40
7562;DHT22;3822;48.784;9.174;2023-06-26T02:40:16;25.50;48.40
7562;DHT22;3822;48.784;9.174;2023-06-26T02:42:42;25.40;48.40
7562;DHT22;3822;48.784;9.174;2023-06-26T02:45:09;25.40;48.30
7562;DHT22;3822;48.784;9.174;2023-06-26T02:47:55;25.30;48.30
7562;DHT22;3822;48.784;9.174;2023-06-26T02:50:21;25.30;48.40
7562;DHT22;3822;48.784;9.174;2023-06-26T02:52:48;25.20;48.40
7562;DHT22;3822;48.784;9.174;2023-06-26T02:55:18;25.20;48.50
7562;DHT22;3822;48.784;9.174;2023-06-26T02:57:45;25.10;48.60
7562;DHT22;3822;48.784;9.174;2023-06-26T03:00:12;25.10;48.60
7562;DHT22;3822;48.784;9.174;2023-06-26T03:02:41;25.10;48.70
7562;DHT22;3822;48.784;9.174;2023-06-26T03:05:07;25.10;48.90
7562;DHT22;3822;48.784;9.174;2023-06-26T03:07:35;25.00;48.90
7562;DHT22;3822;48.784;9.174;2023-06-26T03:10:02;25.00;49.10
7562;DHT22;3822;48.784;9.174;2023-06-26T03:12:33;25.00;49.20
7562;DHT22;3822;48.784;9.174;2023-06-26T03:15:01;24.90;49.10
7562;DHT22;3822;48.784;9.174;2023-06-26T03:17:30;24.90;49.60
7562;DHT22;3822;48.784;9.174;2023-06-26T03:19:56;24.90;49.50
7562;DHT22;3822;48.784;9.174;2023-06-26T03:22:22;24.90;49.60
7562;DHT22;3822;48.784;9.174;2023-06-26T03:24:49;24.90;49.80
7562;DHT22;3822;48.784;9.174;2023-06-26T03:27:17;24.80;49.80
7562;DHT22;3822;48.784;9.174;2023-06-26T03:29:44;24.90;50.00
7562;DHT22;3822;48.784;9.174;2023-06-26T03:32:10;24.90;50.10
7562;DHT22;3822;48.784;9.174;2023-06-26T03:34:38;24.90;50.30
7562;DHT22;3822;48.784;9.174;2023-06-26T03:37:07;24.90;50.40
7562;DHT22;3822;48.784;9.174;2023-06-26T03:39:33;24.80;50.40
7562;DHT22;3822;48.784;9.174;2023-06-26T03:42:00;24.80;50.50
7562;DHT22;3822;48.784;9.174;2023-06-26T03:44:28;24.90;50.70
7562;DHT22;3822;48.784;9.174;2023-06-26T03:46:55;24.80;50.80
7562;DHT22;3822;48.784;9.174;2023-06-26T03:49:23;24.80;50.80
7562;DHT22;3822;48.784;9.174;2023-06-26T03:51:50;25.50;51.40
7562;DHT22;3822;48.784;9.174;2023-06-26T03:54:16;24.90;51.00
7562;DHT22;3822;48.784;9.174;2023-06-26T03:56:42;24.90;51.00
7562;DHT22;3822;48.784;9.174;2023-06-26T03:59:11;24.90;51.10
7562;DHT22;3822;48.784;9.174;2023-06-26T04:01:40;24.90;51.20
7562;DHT22;3822;48.784;9.174;2023-06-26T04:04:06;24.90;51.20
7562;DHT22;3822;48.784;9.174;2023-06-26T04:06:32;24.90;51.30
7562;DHT22;3822;48.784;9.174;2023-06-26T04:09:01;25.00;51.50
7562;DHT22;3822;48.784;9.174;2023-06-26T04:11:28;25.10;51.50
7562;DHT22;3822;48.784;9.174;2023-06-26T04:13:54;25.10;51.50
7562;DHT22;3822;48.784;9.174;2023-06-26T04:16:21;25.10;51.60
7562;DHT22;3822;48.784;9.174;2023-06-26T04:18:51;25.10;51.70
7562;DHT22;3822;48.784;9.174;2023-06-26T04:21:22;25.10;51.90
7562;DHT22;3822;48.784;9.174;2023-06-26T04:23:50;25.10;52.00
7562;DHT22;3822;48.784;9.174;2023-06-26T04:26:17;25.20;52.00
7562;DHT22;3822;48.784;9.174;2023-06-26T04:28:43;25.20;51.90
7562;DHT22;3822;48.784;9.174;2023-06-26T04:31:09;25.20;51.90
7562;DHT22;3822;48.784;9.174;2023-06-26T04:33:36;25.20;52.10
7562;DHT22;3822;48.784;9.174;2023-06-26T04:36:05;25.20;52.10
7562;DHT22;3822;48.784;9.174;2023-06-26T04:38:34;25.20;52.10
7562;DHT22;3822;48.784;9.174;2023-06-26T04:41:01;25.20;52.20
7562;DHT22;3822;48.784;9.174;2023-06-26T04:43:27;25.10;52.30
7562;DHT22;3822;48.784;9.174;2023-06-26T04:45:54;25.20;52.80
7562;DHT22;3822;48.784;9.174;2023-06-26T04:48:20;25.10;52.90
7562;DHT22;3822;48.784;9.174;2023-06-26T04:50:47;25.10;53.10
7562;DHT22;3822;48.784;9.174;2023-06-26T04:53:24;25.10;53.30
7562;DHT22;3822;48.784;9.174;2023-06-26T04:55:51;25.10;53.30
7562;DHT22;3822;48.784;9.174;2023-06-26T04:58:18;25.10;53.40
7562;DHT22;3822;48.784;9.174;2023-06-26T05:00:45;25.10;53.80
7562;DHT22;3822;48.784;9.174;2023-06-26T05:03:11;25.10;53.70
7562;DHT22;3822;48.784;9.174;2023-06-26T05:05:39;25.00;53.60
7562;DHT22;3822;48.784;9.174;2023-06-26T05:10:49;25.00;53.80
7562;DHT22;3822;48.784;9.174;2023-06-26T05:13:16;25.00;53.70
7562;DHT22;3822;48.784;9.174;2023-06-26T05:15:48;25.10;53.80
7562;DHT22;3822;48.784;9.174;2023-06-26T05:18:15;25.10;53.80
7562;DHT22;3822;48.784;9.174;2023-06-26T05:20:41;25.10;53.90
7562;DHT22;3822;48.784;9.174;2023-06-26T05:23:08;25.10;53.90
7562;DHT22;3822;48.784;9.174;2023-06-26T05:25:37;25.20;54.10
7562;DHT22;3822;48.784;9.174;2023-06-26T05:28:03;25.20;53.90
7562;DHT22;3822;48.784;9.174;2023-06-26T05:30:31;25.30;54.00
7562;DHT22;3822;48.784;9.174;2023-06-26T05:33:00;25.30;53.90
7562;DHT22;3822;48.784;9.174;2023-06-26T05:35:28;25.40;53.90
7562;DHT22;3822;48.784;9.174;2023-06-26T05:37:56;25.50;53.90
7562;DHT22;3822;48.784;9.174;2023-06-26T05:40:23;25.50;53.80
7562;DHT22;3822;48.784;9.174;2023-06-26T05:42:50;25.60;53.90
7562;DHT22;3822;48.784;9.174;2023-06-26T05:45:16;25.60;53.80
7562;DHT22;3822;48.784;9.174;2023-06-26T05:47:42;25.70;53.80
7562;DHT22;3822;48.784;9.174;2023-06-26T05:50:09;25.70;53.80
7562;DHT22;3822;48.784;9.174;2023-06-26T05:52:36;25.80;53.80
7562;DHT22;3822;48.784;9.174;2023-06-26T05:55:02;25.80;53.70
7562;DHT22;3822;48.784;9.174;2023-06-26T05:57:29;25.90;53.70
7562;DHT22;3822;48.784;9.174;2023-06-26T05:59:56;26.00;53.80
7562;DHT22;3822;48.784;9.174;2023-06-26T06:02:22;26.10;53.80
7562;DHT22;3822;48.784;9.174;2023-06-26T06:04:49;26.10;53.70
7562;DHT22;3822;48.784;9.174;2023-06-26T06:07:15;26.20;53.70
7562;DHT22;3822;48.784;9.174;2023-06-26T06:09:41;26.20;53.60
7562;DHT22;3822;48.784;9.174;2023-06-26T06:12:08;26.30;53.60
7562;DHT22;3822;48.784;9.174;2023-06-26T06:14:34;26.30;53.50
7562;DHT22;3822;48.784;9.174;2023-06-26T06:17:01;26.40;53.60
7562;DHT22;3822;48.784;9.174;2023-06-26T06:19:27;26.50;53.60
7562;DHT22;3822;48.784;9.174;2023-06-26T06:21:53;26.50;53.50
7562;DHT22;3822;48.784;9.174;2023-06-26T06:24:20;26.60;53.50
7562;DHT22;3822;48.784;9.174;2023-06-26T06:26:46;26.60;53.50
7562;DHT22;3822;48.784;9.174;2023-06-26T06:29:12;26.70;53.50
7562;DHT22;3822;48.784;9.174;2023-06-26T06:31:41;26.70;53.50
7562;DHT22;3822;48.784;9.174;2023-06-26T06:34:08;26.70;53.30
7562;DHT22;3822;48.784;9.174;2023-06-26T06:36:34;26.80;53.40
7562;DHT22;3822;48.784;9.174;2023-06-26T06:39:03;26.80;53.40
7562;DHT22;3822;48.784;9.174;2023-06-26T06:41:31;26.80;53.40
7562;DHT22;3822;48.784;9.174;2023-06-26T06:43:57;26.90;53.40
7562;DHT22;3822;48.784;9.174;2023-06-26T06:46:24;26.90;53.30
7562;DHT22;3822;48.784;9.174;2023-06-26T06:48:53;27.00;53.40
7562;DHT22;3822;48.784;9.174;2023-06-26T06:51:19;27.00;53.40
7562;DHT22;3822;48.784;9.174;2023-06-26T06:53:47;27.00;53.50
7562;DHT22;3822;48.784;9.174;2023-06-26T06:56:14;27.00;53.40
7562;DHT22;3822;48.784;9.174;2023-06-26T06:58:40;27.00;53.40
7562;DHT22;3822;48.784;9.174;2023-06-26T07:01:11;27.10;54.10
7562;DHT22;3822;48.784;9.174;2023-06-26T07:03:37;27.10;53.50
7562;DHT22;3822;48.784;9.174;2023-06-26T07:06:03;27.20;53.40
7562;DHT22;3822;48.784;9.174;2023-06-26T07:08:32;27.30;53.40
7562;DHT22;3822;48.784;9.174;2023-06-26T07:10:58;27.40;53.40
7562;DHT22;3822;48.784;9.174;2023-06-26T07:13:24;27.50;53.30
7562;DHT22;3822;48.784;9.174;2023-06-26T07:15:51;27.60;53.30
7562;DHT22;3822;48.784;9.174;2023-06-26T07:18:17;27.60;53.10
7562;DHT22;3822;48.784;9.174;2023-06-26T07:20:43;27.70;52.90
7562;DHT22;3822;48.784;9.174;2023-06-26T07:23:09;27.70;52.70
7562;DHT22;3822;48.784;9.174;2023-06-26T07:25:38;27.80;52.70
7562;DHT22;3822;48.784;9.174;2023-06-26T07:28:09;27.80;52.60
7562;DHT22;3822;48.784;9.174;2023-06-26T07:30:36;27.80;52.40
7562;DHT22;3822;48.784;9.174;2023-06-26T07:33:03;27.80;52.30
7562;DHT22;3822;48.784;9.174;2023-06-26T07:35:29;27.90;52.50
7562;DHT22;3822;48.784;9.174;2023-06-26T07:37:55;27.90;52.40
7562;DHT22;3822;48.784;9.174;2023-06-26T07:40:22;28.00;52.30
7562;DHT22;3822;48.784;9.174;2023-06-26T07:42:48;28.10;52.20
7562;DHT22;3822;48.784;9.174;2023-06-26T07:45:14;28.10;52.10
7562;DHT22;3822;48.784;9.174;2023-06-26T07:47:43;28.10;52.00
7562;DHT22;3822;48.784;9.174;2023-06-26T07:50:09;28.20;51.90
7562;DHT22;3822;48.784;9.174;2023-06-26T07:52:36;28.20;51.80
7562;DHT22;3822;48.784;9.174;2023-06-26T07:55:02;28.30;51.70
7562;DHT22;3822;48.784;9.174;2023-06-26T07:57:31;28.40;51.50
7562;DHT22;3822;48.784;9.174;2023-06-26T07:59:58;28.50;51.40
7562;DHT22;3822;48.784;9.174;2023-06-26T08:02:26;28.60;51.20
7562;DHT22;3822;48.784;9.174;2023-06-26T08:04:57;28.60;50.90
7562;DHT22;3822;48.784;9.174;2023-06-26T08:07:26;28.70;50.60
7562;DHT22;3822;48.784;9.174;2023-06-26T08:09:52;28.80;50.60
7562;DHT22;3822;48.784;9.174;2023-06-26T08:12:18;28.90;50.40
7562;DHT22;3822;48.784;9.174;2023-06-26T08:14:47;28.90;50.20
7562;DHT22;3822;48.784;9.174;2023-06-26T08:17:13;29.00;50.20
7562;DHT22;3822;48.784;9.174;2023-06-26T08:19:40;29.00;49.80
7562;DHT22;3822;48.784;9.174;2023-06-26T08:22:06;29.10;49.80
7562;DHT22;3822;48.784;9.174;2023-06-26T08:24:32;29.20;49.70
7562;DHT22;3822;48.784;9.174;2023-06-26T08:27:01;28.70;48.90
7562;DHT22;3822;48.784;9.174;2023-06-26T08:29:27;29.40;49.30
7562;DHT22;3822;48.784;9.174;2023-06-26T08:31:54;29.50;49.10
7562;DHT22;3822;48.784;9.174;2023-06-26T08:34:20;29.50;49.00
7562;DHT22;3822;48.784;9.174;2023-06-26T08:36:46;29.60;48.90
7562;DHT22;3822;48.784;9.174;2023-06-26T08:39:12;29.70;48.10
7562;DHT22;3822;48.784;9.174;2023-06-26T08:41:39;29.70;47.70
7562;DHT22;3822;48.784;9.174;2023-06-26T08:44:07;29.80;47.40
7562;DHT22;3822;48.784;9.174;2023-06-26T08:46:36;29.80;47.10
7562;DHT22;3822;48.784;9.174;2023-06-26T08:49:14;29.90;46.90
7562;DHT22;3822;48.784;9.174;2023-06-26T08:51:45;29.90;46.70
7562;DHT22;3822;48.784;9.174;2023-06-26T08:54:17;30.00;46.70
7562;DHT22;3822;48.784;9.174;2023-06-26T08:56:46;30.00;46.60
7562;DHT22;3822;48.784;9.174;2023-06-26T08:59:15;30.10;46.50
7562;DHT22;3822;48.784;9.174;2023-06-26T09:01:42;30.20;46.50
7562;DHT22;3822;48.784;9.174;2023-06-26T09:04:11;30.30;46.00
7562;DHT22;3822;48.784;9.174;2023-06-26T09:06:37;30.30;45.90
7562;DHT22;3822;48.784;9.174;2023-06-26T09:09:05;30.30;45.70
7562;DHT22;3822;48.784;9.174;2023-06-26T09:11:31;30.40;45.80
7562;DHT22;3822;48.784;9.174;2023-06-26T09:13:58;30.40;45.80
7562;DHT22;3822;48.784;9.174;2023-06-26T09:16:30;30.50;45.40
7562;DHT22;3822;48.784;9.174;2023-06-26T09:18:59;30.50;44.80
7562;DHT22;3822;48.784;9.174;2023-06-26T09:21:25;30.50;44.90
7562;DHT22;3822;48.784;9.174;2023-06-26T09:23:52;30.60;45.00
7562;DHT22;3822;48.784;9.174;2023-06-26T09:26:18;30.60;44.90
7562;DHT22;3822;48.784;9.174;2023-06-26T09:28:45;30.70;44.80
7562;DHT22;3822;48.784;9.174;2023-06-26T09:31:12;30.70;44.90
7562;DHT22;3822;48.784;9.174;2023-06-26T09:33:40;30.70;44.70
7562;DHT22;3822;48.784;9.174;2023-06-26T09:36:08;30.80;44.60
7562;DHT22;3822;48.784;9.174;2023-06-26T09:38:46;30.90;44.40
7562;DHT22;3822;48.784;9.174;2023-06-26T09:41:15;30.90;43.80
7562;DHT22;3822;48.784;9.174;2023-06-26T09:43:49;30.90;43.90
7562;DHT22;3822;48.784;9.174;2023-06-26T09:46:26;31.00;43.80
7562;DHT22;3822;48.784;9.174;2023-06-26T09:49:03;31.10;43.80
7562;DHT22;3822;48.784;9.174;2023-06-26T09:51:30;31.10;43.50
7562;DHT22;3822;48.784;9.174;2023-06-26T09:54:01;31.10;43.40
7562;DHT22;3822;48.784;9.174;2023-06-26T09:56:28;31.20;43.60
7562;DHT22;3822;48.784;9.174;2023-06-26T09:58:56;31.20;43.70
7562;DHT22;3822;48.784;9.174;2023-06-26T10:01:23;31.20;43.80
7562;DHT22;3822;48.784;9.174;2023-06-26T10:03:50;31.20;43.90
7562;DHT22;3822;48.784;9.174;2023-06-26T10:06:19;31.20;44.10
7562;DHT22;3822;48.784;9.174;2023-06-26T10:08:50;31.30;44.30
7562;DHT22;3822;48.784;9.174;2023-06-26T10:11:19;31.30;44.30
7562;DHT22;3822;48.784;9.174;2023-06-26T10:13:50;31.40;44.40
7562;DHT22;3822;48.784;9.174;2023-06-26T10:16:18;31.50;44.40
7562;DHT22;3822;48.784;9.174;2023-06-26T10:18:52;31.50;44.40
7562;DHT22;3822;48.784;9.174;2023-06-26T10:21:20;31.50;44.60
7562;DHT22;3822;48.784;9.174;2023-06-26T10:23:47;31.60;44.70
7562;DHT22;3822;48.784;9.174;2023-06-26T10:26:14;31.60;44.80
7562;DHT22;3822;48.784;9.174;2023-06-26T10:28:43;31.60;44.90
7562;DHT22;3822;48.784;9.174;2023-06-26T10:31:11;31.50;45.00
7562;DHT22;3822;48.784;9.174;2023-06-26T10:33:37;31.50;45.60
7562;DHT22;3822;48.784;9.174;2023-06-26T10:36:16;31.40;45.00
7562;DHT22;3822;48.784;9.174;2023-06-26T10:38:49;31.50;45.00
7562;DHT22;3822;48.784;9.174;2023-06-26T10:41:18;31.40;45.20
7562;DHT22;3822;48.784;9.174;2023-06-26T10:43:46;31.40;45.50
7562;DHT22;3822;48.784;9.174;2023-06-26T10:46:15;32.20;46.50
7562;DHT22;3822;48.784;9.174;2023-06-26T10:48:55;31.30;46.00
7562;DHT22;3822;48.784;9.174;2023-06-26T10:51:25;31.20;45.20
7562;DHT22;3822;48.784;9.174;2023-06-26T10:53:55;31.20;45.10
7562;DHT22;3822;48.784;9.174;2023-06-26T10:56:41;31.20;45.20
7562;DHT22;3822;48.784;9.174;2023-06-26T10:59:15;31.20;45.30
7562;DHT22;3822;48.784;9.174;2023-06-26T11:01:45;31.10;45.50
7562;DHT22;3822;48.784;9.174;2023-06-26T11:12:42;31.20;45.80
7562;DHT22;3822;48.784;9.174;2023-06-26T11:15:14;31.20;45.80
7562;DHT22;3822;48.784;9.174;2023-06-26T11:17:42;31.20;45.70
7562;DHT22;3822;48.784;9.174;2023-06-26T11:20:09;31.20;46.10
7562;DHT22;3822;48.784;9.174;2023-06-26T11:22:37;31.10;46.30
7562;DHT22;3822;48.784;9.174;2023-06-26T11:25:05;31.20;46.50
7562;DHT22;3822;48.784;9.174;2023-06-26T11:27:37;31.20;46.60
7562;DHT22;3822;48.784;9.174;2023-06-26T11:30:04;31.20;46.60
7562;DHT22;3822;48.784;9.174;2023-06-26T11:32:38;31.20;46.60
7562;DHT22;3822;48.784;9.174;2023-06-26T11:35:05;31.30;46.70
7562;DHT22;3822;48.784;9.174;2023-06-26T11:37:31;31.30;46.50
7562;DHT22;3822;48.784;9.174;2023-06-26T11:39:58;31.30;46.50
7562;DHT22;3822;48.784;9.174;2023-06-26T11:42:24;31.30;46.50
7562;DHT22;3822;48.784;9.174;2023-06-26T11:44:51;31.40;46.80
7562;DHT22;3822;48.784;9.174;2023-06-26T11:47:20;31.50;46.80
7562;DHT22;3822;48.784;9.174;2023-06-26T11:49:49;31.50;46.00
7562;DHT22;3822;48.784;9.174;2023-06-26T11:52:15;31.40;46.10
7562;DHT22;3822;48.784;9.174;2023-06-26T11:54:42;31.40;46.40
7562;DHT22;3822;48.784;9.174;2023-06-26T11:57:12;31.40;46.60
7562;DHT22;3822;48.784;9.174;2023-06-26T11:59:43;30.60;46.10
7562;DHT22;3822;48.784;9.174;2023-06-26T12:02:10;31.40;47.10
7562;DHT22;3822;48.784;9.174;2023-06-26T12:04:43;31.40;48.50
7562;DHT22;3822;48.784;9.174;2023-06-26T12:07:10;31.30;49.00
7562;DHT22;3822;48.784;9.174;2023-06-26T12:09:43;31.20;49.40
7562;DHT22;3822;48.784;9.174;2023-06-26T12:12:10;31.20;49.90
7562;DHT22;3822;48.784;9.174;2023-06-26T12:14:42;31.10;50.10
7562;DHT22;3822;48.784;9.174;2023-06-26T12:17:12;31.10;50.50
7562;DHT22;3822;48.784;9.174;2023-06-26T12:19:45;31.10;50.70
7562;DHT22;3822;48.784;9.174;2023-06-26T12:22:16;30.50;50.50
7562;DHT22;3822;48.784;9.174;2023-06-26T12:24:43;31.00;50.90
7562;DHT22;3822;48.784;9.174;2023-06-26T12:27:11;31.00;50.90
7562;DHT22;3822;48.784;9.174;2023-06-26T12:29:39;31.10;50.80
7562;DHT22;3822;48.784;9.174;2023-06-26T12:32:10;31.10;50.70
7562;DHT22;3822;48.784;9.174;2023-06-26T12:34:37;31.10;50.90
7562;DHT22;3822;48.784;9.174;2023-06-26T12:37:05;31.20;51.10
7562;DHT22;3822;48.784;9.174;2023-06-26T12:42:17;31.20;51.00
7562;DHT22;3822;48.784;9.174;2023-06-26T12:44:47;31.30;50.90
7562;DHT22;3822;48.784;9.174;2023-06-26T12:47:17;31.30;50.70
7562;DHT22;3822;48.784;9.174;2023-06-26T12:49:44;31.40;50.50
7562;DHT22;3822;48.784;9.174;2023-06-26T12:52:12;31.30;50.70
7562;DHT22;3822;48.784;9.174;2023-06-26T12:54:41;31.40;50.10
7562;DHT22;3822;48.784;9.174;2023-06-26T12:57:13;31.40;50.10
7562;DHT22;3822;48.784;9.174;2023-06-26T12:59:42;31.50;50.20
7562;DHT22;3822;48.784;9.174;2023-06-26T13:02:11;31.60;49.60
7562;DHT22;3822;48.784;9.174;2023-06-26T13:04:42;31.50;49.30
7562;DHT22;3822;48.784;9.174;2023-06-26T13:07:10;31.60;49.40
7562;DHT22;3822;48.784;9.174;2023-06-26T13:09:36;31.70;49.00
7562;DHT22;3822;48.784;9.174;2023-06-26T13:12:07;31.70;48.90
7562;DHT22;3822;48.784;9.174;2023-06-26T13:14:33;31.80;49.10
7562;DHT22;3822;48.784;9.174;2023-06-26T13:17:02;31.80;48.70
7562;DHT22;3822;48.784;9.174;2023-06-26T13:19:30;31.80;48.50
7562;DHT22;3822;48.784;9.174;2023-06-26T13:21:57;31.80;48.40
7562;DHT22;3822;48.784;9.174;2023-06-26T13:24:24;31.80;48.40
7562;DHT22;3822;48.784;9.174;2023-06-26T13:26:50;31.80;48.40
7562;DHT22;3822;48.784;9.174;2023-06-26T13:29:19;31.80;48.30
7562;DHT22;3822;48.784;9.174;2023-06-26T13:31:45;31.90;47.80
7562;DHT22;3822;48.784;9.174;2023-06-26T13:34:21;31.90;47.70
7562;DHT22;3822;48.784;9.174;2023-06-26T13:36:49;31.90;46.90
7562;DHT22;3822;48.784;9.174;2023-06-26T13:39:15;31.90;47.20
7562;DHT22;3822;48.784;9.174;2023-06-26T13:41:41;32.00;46.80
7562;DHT22;3822;48.784;9.174;2023-06-26T13:44:08;32.00;46.70
7562;DHT22;3822;48.784;9.174;2023-06-26T13:46:36;32.00;46.10
7562;DHT22;3822;48.784;9.174;2023-06-26T13:49:05;32.00;45.70
7562;DHT22;3822;48.784;9.174;2023-06-26T13:51:31;32.10;45.70
7562;DHT22;3822;48.784;9.174;2023-06-26T13:53:57;32.20;45.20
7562;DHT22;3822;48.784;9.174;2023-06-26T13:56:26;32.20;44.10
7562;DHT22;3822;48.784;9.174;2023-06-26T13:58:55;32.20;44.10
7562;DHT22;3822;48.784;9.174;2023-06-26T14:01:21;32.20;43.60
7562;DHT22;3822;48.784;9.174;2023-06-26T14:03:47;32.20;42.80
7562;DHT22;3822;48.784;9.174;2023-06-26T14:06:14;32.10;42.50
7562;DHT22;3822;48.784;9.174;2023-06-26T14:08:40;32.10;42.10
7562;DHT22;3822;48.784;9.174;2023-06-26T14:11:06;32.10;42.20
7562;DHT22;3822;48.784;9.174;2023-06-26T14:13:32;32.20;42.00
7562;DHT22;3822;48.784;9.174;2023-06-26T14:15:59;32.20;41.90
7562;DHT22;3822;48.784;9.174;2023-06-26T14:18:25;32.30;41.60
7562;DHT22;3822;48.784;9.174;2023-06-26T14:20:53;32.40;41.00
7562;DHT22;3822;48.784;9.174;2023-06-26T14:23:19;32.40;40.60
7562;DHT22;3822;48.784;9.174;2023-06-26T14:25:48;32.30;40.10
7562;DHT22;3822;48.784;9.174;2023-06-26T14:28:17;32.30;40.20
7562;DHT22;3822;48.784;9.174;2023-06-26T14:30:43;32.30;40.60
7562;DHT22;3822;48.784;9.174;2023-06-26T14:33:09;32.30;40.90
7562;DHT22;3822;48.784;9.174;2023-06-26T14:35:36;32.30;40.70
7562;DHT22;3822;48.784;9.174;2023-06-26T14:38:02;32.20;40.80
7562;DHT22;3822;48.784;9.174;2023-06-26T14:40:30;32.20;41.00
7562;DHT22;3822;48.784;9.174;2023-06-26T14:42:57;32.30;40.80
7562;DHT22;3822;48.784;9.174;2023-06-26T14:45:23;32.30;40.50
7562;DHT22;3822;48.784;9.174;2023-06-26T14:47:50;32.40;40.20
7562;DHT22;3822;48.784;9.174;2023-06-26T14:50:16;32.30;40.20
7562;DHT22;3822;48.784;9.174;2023-06-26T14:52:42;32.30;40.40
7562;DHT22;3822;48.784;9.174;2023-06-26T14:55:09;32.30;40.50
7562;DHT22;3822;48.784;9.174;2023-06-26T14:57:35;32.30;40.60
7562;DHT22;3822;48.784;9.174;2023-06-26T15:00:02;32.20;41.20
7562;DHT22;3822;48.784;9.174;2023-06-26T15:02:29;32.20;41.80
7562;DHT22;3822;48.784;9.174;2023-06-26T15:04:55;32.20;41.80
7562;DHT22;3822;48.784;9.174;2023-06-26T15:07:21;32.20;41.50
7562;DHT22;3822;48.784;9.174;2023-06-26T15:09:52;32.20;41.50
7562;DHT22;3822;48.784;9.174;2023-06-26T15:12:18;32.20;41.60
7562;DHT22;3822;48.784;9.174;2023-06-26T15:14:45;32.20;41.70
7562;DHT22;3822;48.784;9.174;2023-06-26T15:17:11;32.20;41.80
7562;DHT22;3822;48.784;9.174;2023-06-26T15:19:40;32.30;41.80
7562;DHT22;3822;48.784;9.174;2023-06-26T15:22:07;32.30;41.70
7562;DHT22;3822;48.784;9.174;2023-06-26T15:24:33;32.20;41.70
7562;DHT22;3822;48.784;9.174;2023-06-26T15:26:59;32.20;41.70
7562;DHT22;3822;48.784;9.174;2023-06-26T15:29:26;32.20;41.80
7562;DHT22;3822;48.784;9.174;2023-06-26T15:31:52;32.20;41.90
7562;DHT22;3822;48.784;9.174;2023-06-26T15:34:19;32.10;41.40
7562;DHT22;3822;48.784;9.174;2023-06-26T15:36:48;32.10;41.50
7562;DHT22;3822;48.784;9.174;2023-06-26T15:39:17;32.00;41.40
7562;DHT22;3822;48.784;9.174;2023-06-26T15:41:43;32.00;41.50
7562;DHT22;3822;48.784;9.174;2023-06-26T15:44:10;32.00;41.30
7562;DHT22;3822;48.784;9.174;2023-06-26T15:46:38;31.90;41.00
7562;DHT22;3822;48.784;9.174;2023-06-26T15:49:04;31.80;40.80
7562;DHT22;3822;48.784;9.174;2023-06-26T15:51:35;31.70;40.90
7562;DHT22;3822;48.784;9.174;2023-06-26T15:54:03;31.60;41.00
7562;DHT22;3822;48.784;9.174;2023-06-26T15:56:30;31.50;40.90
7562;DHT22;3822;48.784;9.174;2023-06-26T15:58:56;31.40;41.00
7562;DHT22;3822;48.784;9.174;2023-06-26T16:01:25;31.40;41.30
7562;DHT22;3822;48.784;9.174;2023-06-26T16:03:51;31.30;41.60
7562;DHT22;3822;48.784;9.174;2023-06-26T16:06:18;31.30;41.90
7562;DHT22;3822;48.784;9.174;2023-06-26T16:08:46;31.20;41.90
7562;DHT22;3822;48.784;9.174;2023-06-26T16:11:14;31.10;42.20
7562;DHT22;3822;48.784;9.174;2023-06-26T16:13:40;31.10;42.30
7562;DHT22;3822;48.784;9.174;2023-06-26T16:16:07;31.10;42.40
7562;DHT22;3822;48.784;9.174;2023-06-26T16:18:33;30.90;42.40
7562;DHT22;3822;48.784;9.174;2023-06-26T16:21:00;30.90;42.50
7562;DHT22;3822;48.784;9.174;2023-06-26T16:23:26;30.70;42.60
7562;DHT22;3822;48.784;9.174;2023-06-26T16:25:52;30.60;42.60
7562;DHT22;3822;48.784;9.174;2023-06-26T16:28:18;30.50;42.60